TimeEDT,TemperatureF,Dew PointF,Humidity,Sea Level PressureIn,VisibilityMPH,Wind Direction,Wind SpeedMPH,Gust SpeedMPH,PrecipitationIn,Events,Conditions,WindDirDegrees,DateUTC
12:15 AM,64.4,57.2,77,29.94,9.0,SW,10.4,-,N/A,,Scattered Clouds,220,2013-04-01 04:15:00
12:35 AM,64.4,57.2,77,29.94,10.0,SW,9.2,-,N/A,,Mostly Cloudy,220,2013-04-01 04:35:00
12:55 AM,64.4,57.2,77,29.94,9.0,SW,8.1,-,N/A,,Mostly Cloudy,220,2013-04-01 04:55:00
1:15 AM,64.4,57.2,77,29.94,9.0,SSW,6.9,-,N/A,,Partly Cloudy,210,2013-04-01 05:15:00
1:35 AM,64.4,57.2,77,29.94,8.0,SSW,6.9,-,N/A,,Scattered Clouds,210,2013-04-01 05:35:00
1:55 AM,64.4,57.2,77,29.93,8.0,SSW,5.8,-,N/A,,Scattered Clouds,210,2013-04-01 05:55:00
2:15 AM,64.4,57.2,77,29.93,9.0,SSW,8.1,-,N/A,,Mostly Cloudy,210,2013-04-01 06:15:00
2:35 AM,64.4,57.2,77,29.91,10.0,SSW,8.1,-,N/A,,Mostly Cloudy,210,2013-04-01 06:35:00
2:55 AM,64.4,57.2,77,29.91,10.0,SW,8.1,-,N/A,,Mostly Cloudy,230,2013-04-01 06:55:00
3:15 AM,64.4,57.2,77,29.90,10.0,WSW,5.8,-,N/A,,Mostly Cloudy,240,2013-04-01 07:15:00
3:35 AM,64.4,55.4,73,29.90,10.0,SW,6.9,-,N/A,,Mostly Cloudy,230,2013-04-01 07:35:00
3:55 AM,64.4,55.4,73,29.90,10.0,SW,3.5,-,N/A,,Mostly Cloudy,230,2013-04-01 07:55:00
4:15 AM,64.4,55.4,73,29.89,10.0,SW,5.8,-,N/A,,Partly Cloudy,220,2013-04-01 08:15:00
4:35 AM,62.6,55.4,77,29.89,10.0,SSW,5.8,-,N/A,,Partly Cloudy,210,2013-04-01 08:35:00
4:55 AM,64.4,55.4,73,29.89,10.0,WSW,6.9,-,N/A,,Mostly Cloudy,240,2013-04-01 08:55:00
5:35 AM,64.4,55.4,73,29.90,10.0,WSW,6.9,-,N/A,,Mostly Cloudy,240,2013-04-01 09:35:00
5:55 AM,64.4,55.4,73,29.90,10.0,West,6.9,-,N/A,,Scattered Clouds,260,2013-04-01 09:55:00
6:15 AM,64.4,57.2,77,29.90,10.0,SW,5.8,-,N/A,,Mostly Cloudy,230,2013-04-01 10:15:00
6:35 AM,64.4,57.2,77,29.90,10.0,WSW,5.8,-,N/A,,Mostly Cloudy,240,2013-04-01 10:35:00
6:55 AM,64.4,57.2,77,29.91,10.0,West,6.9,-,N/A,,Mostly Cloudy,270,2013-04-01 10:55:00
7:15 AM,62.6,57.2,82,29.92,7.0,West,5.8,-,N/A,,Mostly Cloudy,270,2013-04-01 11:15:00
7:35 AM,62.6,59.0,88,29.92,2.5,West,6.9,-,0.02,,Light Drizzle,260,2013-04-01 11:35:00
7:55 AM,62.6,59.0,88,29.92,8.0,WSW,5.8,-,0.02,,Mostly Cloudy,240,2013-04-01 11:55:00
8:15 AM,62.6,59.0,88,29.92,9.0,SSW,3.5,-,N/A,,Mostly Cloudy,210,2013-04-01 12:15:00
8:35 AM,62.6,59.0,88,29.93,8.0,SW,6.9,-,N/A,,Scattered Clouds,230,2013-04-01 12:35:00
8:55 AM,62.6,60.8,94,29.94,10.0,SW,6.9,-,N/A,,Scattered Clouds,230,2013-04-01 12:55:00
9:15 AM,62.6,60.8,94,29.94,9.0,SW,6.9,-,N/A,,Scattered Clouds,220,2013-04-01 13:15:00
9:35 AM,64.4,60.8,88,29.94,10.0,SW,5.8,-,N/A,,Scattered Clouds,230,2013-04-01 13:35:00
9:55 AM,64.4,60.8,88,29.96,4.0,SW,8.1,-,N/A,Rain,Light Rain,230,2013-04-01 13:55:00
10:15 AM,64.4,60.8,88,29.95,9.0,WSW,8.1,-,N/A,,Mostly Cloudy,250,2013-04-01 14:15:00
10:55 AM,66.2,60.8,83,29.93,9.0,SW,8.1,-,N/A,,Scattered Clouds,220,2013-04-01 14:55:00
11:15 AM,66.2,60.8,83,29.93,10.0,WSW,9.2,-,N/A,,Mostly Cloudy,250,2013-04-01 15:15:00
11:35 AM,68.0,60.8,78,29.93,10.0,WSW,10.4,-,N/A,,Mostly Cloudy,250,2013-04-01 15:35:00
11:55 AM,68.0,60.8,78,29.94,10.0,SW,11.5,-,N/A,,Mostly Cloudy,230,2013-04-01 15:55:00
12:15 PM,68.0,60.8,78,29.93,10.0,WSW,6.9,-,N/A,,Mostly Cloudy,250,2013-04-01 16:15:00
12:35 PM,69.8,60.8,73,29.93,10.0,WSW,8.1,-,N/A,,Scattered Clouds,240,2013-04-01 16:35:00
12:55 PM,71.6,60.8,69,29.92,10.0,WNW,10.4,16.1,N/A,,Partly Cloudy,290,2013-04-01 16:55:00
1:15 PM,73.4,59.0,61,29.92,10.0,WNW,11.5,16.1,N/A,,Scattered Clouds,290,2013-04-01 17:15:00
1:35 PM,73.4,57.2,57,29.91,10.0,NW,10.4,-,N/A,,Scattered Clouds,310,2013-04-01 17:35:00
1:55 PM,73.4,57.2,57,29.90,10.0,NW,9.2,-,N/A,,Scattered Clouds,310,2013-04-01 17:55:00
2:15 PM,73.4,57.2,57,29.90,10.0,WNW,12.7,-,N/A,,Scattered Clouds,300,2013-04-01 18:15:00
2:35 PM,75.2,57.2,53,29.89,10.0,West,11.5,16.1,N/A,,Clear,260,2013-04-01 18:35:00
2:55 PM,75.2,57.2,53,29.88,10.0,WSW,8.1,17.3,N/A,,Partly Cloudy,250,2013-04-01 18:55:00
3:15 PM,77.0,57.2,50,29.87,10.0,WSW,9.2,-,N/A,,Partly Cloudy,250,2013-04-01 19:15:00
3:35 PM,75.2,57.2,53,29.87,10.0,NW,9.2,-,N/A,,Partly Cloudy,320,2013-04-01 19:35:00
3:55 PM,75.2,57.2,53,29.86,10.0,WNW,10.4,-,N/A,,Partly Cloudy,300,2013-04-01 19:55:00
4:15 PM,75.2,57.2,53,29.86,10.0,WNW,10.4,-,N/A,,Scattered Clouds,290,2013-04-01 20:15:00
4:35 PM,77.0,57.2,50,29.86,10.0,West,10.4,-,N/A,,Scattered Clouds,280,2013-04-01 20:35:00
4:55 PM,77.0,57.2,50,29.86,10.0,WNW,10.4,-,N/A,,Scattered Clouds,290,2013-04-01 20:55:00
5:15 PM,75.2,57.2,53,29.86,10.0,NW,11.5,17.3,N/A,,Scattered Clouds,310,2013-04-01 21:15:00
5:35 PM,78.8,57.2,47,29.86,10.0,West,9.2,17.3,N/A,,Scattered Clouds,280,2013-04-01 21:35:00
5:55 PM,78.8,55.4,44,29.86,10.0,West,13.8,-,N/A,,Partly Cloudy,270,2013-04-01 21:55:00
6:15 PM,77.0,55.4,47,29.86,10.0,West,8.1,-,N/A,,Partly Cloudy,280,2013-04-01 22:15:00
6:35 PM,75.2,55.4,50,29.87,10.0,NW,8.1,-,N/A,,Clear,310,2013-04-01 22:35:00
6:55 PM,75.2,53.6,47,29.87,10.0,WNW,11.5,17.3,N/A,,Clear,300,2013-04-01 22:55:00
7:15 PM,73.4,53.6,50,29.88,10.0,West,6.9,-,N/A,,Clear,280,2013-04-01 23:15:00
7:35 PM,73.4,53.6,50,29.89,10.0,Calm,Calm,-,N/A,,Clear,0,2013-04-01 23:35:00
7:55 PM,71.6,53.6,53,29.89,10.0,Calm,Calm,-,N/A,,Clear,0,2013-04-01 23:55:00
8:15 PM,66.2,55.4,68,29.89,10.0,Calm,Calm,-,N/A,,Clear,0,2013-04-02 00:15:00
8:35 PM,64.4,55.4,73,29.90,10.0,Calm,Calm,-,N/A,,Clear,0,2013-04-02 00:35:00
8:55 PM,62.6,57.2,82,29.90,10.0,Calm,Calm,-,N/A,,Clear,0,2013-04-02 00:55:00
9:15 PM,62.6,57.2,82,29.90,10.0,Calm,Calm,-,N/A,,Clear,0,2013-04-02 01:15:00
9:35 PM,60.8,55.4,82,29.91,10.0,Calm,Calm,-,N/A,,Clear,0,2013-04-02 01:35:00
9:55 PM,60.8,55.4,82,29.91,10.0,Calm,Calm,-,N/A,,Clear,0,2013-04-02 01:55:00
10:15 PM,60.8,55.4,82,29.92,10.0,Calm,Calm,-,N/A,,Clear,0,2013-04-02 02:15:00
10:35 PM,59.0,55.4,88,29.93,10.0,Calm,Calm,-,N/A,,Clear,0,2013-04-02 02:35:00
10:55 PM,57.2,55.4,94,29.94,10.0,Calm,Calm,-,N/A,,Clear,0,2013-04-02 02:55:00
11:15 PM,57.2,55.4,94,29.94,10.0,Calm,Calm,-,N/A,,Clear,0,2013-04-02 03:15:00
11:35 PM,57.2,55.4,94,29.95,10.0,Calm,Calm,-,N/A,,Clear,0,2013-04-02 03:35:00
11:55 PM,57.2,55.4,94,29.95,9.0,Calm,Calm,-,N/A,,Clear,0,2013-04-02 03:55:00